Time;durP1;ratioP1;P1;durP2;ratioP2;P2;SDS_P1;SDS_P2;PMS_P1;PMS_P2;Temp;Humidity;BMP_temperature;BMP_pressure;BME280_temperature;BME280_humidity;BME280_pressure;Samples;Min_cycle;Max_cycle;Signal;HPM_P1;HPM_P2
2022/11/05 00:10:02;;;;;;;10.95;5.68;;;5.00;99.90;;;;;;5121033;27;20052;-78
2022/11/05 00:17:57;;;;;;;10.52;5.65;;;5.00;99.90;;;;;;5127489;27;20453;-77
2022/11/05 00:20:23;;;;;;;10.18;5.28;;;4.90;99.90;;;;;;5129171;27;20042;-77
2022/11/05 00:25:32;;;;;;;8.70;5.03;;;4.90;99.90;;;;;;5129289;27;20047;-77
2022/11/05 00:28:02;;;;;;;10.07;4.93;;;4.90;99.90;;;;;;5119285;27;20048;-77
2022/11/05 00:30:29;;;;;;;9.88;5.30;;;4.90;99.90;;;;;;5129496;27;20138;-78
2022/11/05 00:32:59;;;;;;;11.02;5.60;;;4.90;99.90;;;;;;5131552;27;20031;-78
2022/11/05 00:35:25;;;;;;;8.40;5.45;;;4.80;99.90;;;;;;5129558;27;20043;-78
2022/11/05 00:37:52;;;;;;;8.63;4.88;;;4.80;99.90;;;;;;5120323;27;20659;-78
2022/11/05 00:40:18;;;;;;;8.38;4.97;;;4.80;99.90;;;;;;5126279;27;20118;-77
2022/11/05 00:45:29;;;;;;;10.57;5.38;;;4.80;99.90;;;;;;5131120;27;20051;-77
2022/11/05 00:50:43;;;;;;;6.93;5.13;;;4.80;99.90;;;;;;5133969;27;20053;-78
2022/11/05 00:53:08;;;;;;;7.28;5.20;;;4.90;99.90;;;;;;5129603;27;20039;-77
2022/11/05 00:55:39;;;;;;;9.75;4.78;;;4.90;99.90;;;;;;5132248;27;20066;-79
2022/11/05 00:58:11;;;;;;;9.70;5.72;;;5.00;99.90;;;;;;5122844;27;20062;-77
2022/11/05 01:00:39;;;;;;;9.10;5.50;;;5.00;99.90;;;;;;5128058;27;20103;-77
2022/11/05 01:03:08;;;;;;;9.13;5.85;;;5.00;99.90;;;;;;5124154;27;20035;-78
2022/11/05 01:05:38;;;;;;;10.02;5.85;;;5.10;99.90;;;;;;5128273;27;20039;-77
2022/11/05 01:08:04;;;;;;;14.05;5.68;;;5.10;99.90;;;;;;5130331;27;20053;-77
2022/11/05 01:10:29;;;;;;;16.58;5.80;;;5.20;99.90;;;;;;5127953;27;21239;-77
2022/11/05 01:12:56;;;;;;;11.48;6.57;;;5.20;99.90;;;;;;5127027;27;20385;-77
2022/11/05 01:15:22;;;;;;;13.15;6.32;;;5.00;99.90;;;;;;5133380;27;20043;-78
2022/11/05 01:17:49;;;;;;;11.68;6.50;;;5.20;99.90;;;;;;5132717;27;20110;-78
2022/11/05 01:20:15;;;;;;;11.25;5.95;;;5.20;99.90;;;;;;5134127;27;20043;-77
2022/11/05 01:22:41;;;;;;;12.55;5.45;;;5.20;99.90;;;;;;5128299;27;20410;-78
2022/11/05 01:25:07;;;;;;;6.55;5.50;;;5.20;99.90;;;;;;5130677;27;20046;-77
2022/11/05 01:27:35;;;;;;;11.02;5.55;;;5.20;99.90;;;;;;5118799;27;20043;-77
2022/11/05 01:30:00;;;;;;;9.27;6.18;;;5.20;99.90;;;;;;5132277;27;20514;-77
2022/11/05 01:32:26;;;;;;;8.27;5.72;;;5.20;99.90;;;;;;5131287;27;20039;-77
2022/11/05 01:34:52;;;;;;;9.68;5.60;;;5.20;99.90;;;;;;5132102;27;20035;-77
2022/11/05 01:37:17;;;;;;;11.73;5.80;;;5.20;99.90;;;;;;5129648;27;20087;-78
2022/11/05 01:39:43;;;;;;;9.82;5.95;;;5.20;99.90;;;;;;5117519;27;20126;-79
2022/11/05 01:42:21;;;;;;;8.85;5.82;;;5.20;99.90;;;;;;5123496;27;20035;-78
2022/11/05 01:44:55;;;;;;;8.90;5.55;;;5.20;99.90;;;;;;5121063;27;20040;-76
2022/11/05 01:47:30;;;;;;;9.90;5.53;;;5.20;99.90;;;;;;5134497;27;20104;-78
2022/11/05 01:49:59;;;;;;;8.70;5.55;;;5.20;99.90;;;;;;5133810;27;20078;-77
2022/11/05 01:52:27;;;;;;;11.93;5.65;;;5.20;99.90;;;;;;5121705;27;20112;-76
2022/11/05 01:54:53;;;;;;;8.77;5.57;;;5.10;99.90;;;;;;5125203;27;20096;-76
2022/11/05 01:57:19;;;;;;;12.85;6.35;;;5.00;99.90;;;;;;5130102;27;20059;-79
2022/11/05 01:59:54;;;;;;;12.40;5.93;;;5.00;99.90;;;;;;5116605;27;20122;-78
2022/11/05 02:02:20;;;;;;;9.35;5.40;;;5.00;99.90;;;;;;5132728;27;20121;-77
2022/11/05 02:04:57;;;;;;;9.95;5.32;;;4.90;99.90;;;;;;5117610;27;20144;-79
2022/11/05 02:07:25;;;;;;;9.47;5.50;;;4.90;99.90;;;;;;5123590;27;20049;-80
2022/11/05 02:09:59;;;;;;;9.35;5.75;;;4.90;99.90;;;;;;5128504;27;20043;-78
2022/11/05 02:12:27;;;;;;;12.68;5.85;;;4.90;99.90;;;;;;5121620;28;20126;-77
2022/11/05 02:14:53;;;;;;;9.23;5.82;;;4.80;99.90;;;;;;5132409;28;20455;-80
2022/11/05 02:17:44;;;;;;;7.45;5.50;;;4.80;99.90;;;;;;5131132;28;20128;-78
2022/11/05 02:20:34;;;;;;;10.63;4.97;;;4.70;99.90;;;;;;5129047;28;20112;-78
2022/11/05 02:23:37;;;;;;;9.02;5.05;;;4.70;99.90;;;;;;5125994;28;20486;-78
2022/11/05 02:26:06;;;;;;;6.80;4.88;;;4.70;99.90;;;;;;5129559;28;20524;-78
2022/11/05 02:28:37;;;;;;;13.40;5.38;;;4.60;99.90;;;;;;5130952;27;20039;-78
2022/11/05 02:31:12;;;;;;;11.95;5.38;;;4.60;99.90;;;;;;5121259;28;20055;-79
2022/11/05 02:34:06;;;;;;;8.85;5.00;;;4.60;99.90;;;;;;5119309;27;20031;-78
2022/11/05 02:36:43;;;;;;;6.95;4.80;;;4.60;99.90;;;;;;5128841;28;20039;-79
2022/11/05 02:39:32;;;;;;;8.10;4.50;;;4.60;99.90;;;;;;5127040;28;20153;-78
2022/11/05 02:42:22;;;;;;;9.85;4.90;;;4.60;99.90;;;;;;5123709;28;20297;-79
2022/11/05 02:44:56;;;;;;;10.77;5.15;;;4.60;99.90;;;;;;5125035;28;20100;-79
2022/11/05 02:47:44;;;;;;;6.57;4.88;;;4.60;99.90;;;;;;5129401;27;20054;-78
2022/11/05 02:50:19;;;;;;;8.60;5.47;;;4.60;99.90;;;;;;5136403;27;20047;-77
2022/11/05 02:52:50;;;;;;;11.43;4.63;;;4.60;99.90;;;;;;5133221;27;20126;-78
2022/11/05 02:55:31;;;;;;;12.55;5.30;;;4.60;99.90;;;;;;5134095;27;20071;-78
2022/11/05 02:57:58;;;;;;;12.32;5.95;;;4.70;99.90;;;;;;5132261;27;20082;-78
2022/11/05 03:00:33;;;;;;;;;;;4.60;99.90;;;;;;5133984;27;20050;-78
2022/11/05 03:02:59;;;;;;;11.68;5.20;;;4.70;99.90;;;;;;5131911;27;19919;-77
2022/11/05 03:05:35;;;;;;;9.13;4.95;;;4.70;99.90;;;;;;5126383;27;20096;-77
2022/11/05 03:08:17;;;;;;;9.80;4.97;;;4.60;99.90;;;;;;5134539;27;20050;-79
2022/11/05 03:11:04;;;;;;;7.72;4.82;;;4.60;99.90;;;;;;5130288;27;20043;-79
2022/11/05 03:13:41;;;;;;;9.30;4.70;;;4.60;99.90;;;;;;5129712;27;20051;-79
2022/11/05 03:16:15;;;;;;;8.65;5.30;;;4.60;99.90;;;;;;5129876;27;20092;-79
2022/11/05 03:18:49;;;;;;;6.57;4.95;;;4.50;99.90;;;;;;5116867;27;20040;-78
2022/11/05 03:21:25;;;;;;;12.45;5.25;;;4.50;99.90;;;;;;5134402;27;20410;-78
2022/11/05 03:23:57;;;;;;;10.85;5.30;;;4.50;99.90;;;;;;5130830;27;20036;-78
2022/11/05 03:27:04;;;;;;;11.48;5.18;;;4.50;99.90;;;;;;5128576;27;20050;-79
2022/11/05 03:29:37;;;;;;;7.93;4.97;;;4.60;99.90;;;;;;5119892;27;20050;-79
2022/11/05 03:32:04;;;;;;;6.50;4.95;;;4.50;99.90;;;;;;5132558;27;20114;-79
2022/11/05 03:34:35;;;;;;;14.23;5.22;;;4.50;99.90;;;;;;5134342;27;20456;-78
2022/11/05 03:37:02;;;;;;;9.80;5.95;;;4.50;99.90;;;;;;5129792;27;20027;-79
2022/11/05 03:39:36;;;;;;;10.60;5.10;;;4.50;99.90;;;;;;5136556;27;20047;-78
2022/11/05 03:42:04;;;;;;;31.33;6.57;;;4.40;99.90;;;;;;5133388;27;20454;-78
2022/11/05 03:44:35;;;;;;;7.75;4.95;;;4.40;99.90;;;;;;5136612;27;20035;-78
2022/11/05 03:47:04;;;;;;;12.27;5.03;;;4.40;99.90;;;;;;5133428;27;20085;-78
2022/11/05 03:49:37;;;;;;;7.72;5.40;;;4.00;99.90;;;;;;5120981;27;20177;-77
2022/11/05 03:52:32;;;;;;;11.27;5.05;;;4.30;99.90;;;;;;5132596;27;20516;-78
2022/11/05 03:54:58;;;;;;;9.18;4.88;;;4.30;99.90;;;;;;5127107;27;20048;-78
2022/11/05 03:57:35;;;;;;;4.77;4.27;;;4.30;99.90;;;;;;5127979;27;20147;-78
2022/11/05 04:00:06;;;;;;;9.52;5.07;;;4.30;99.90;;;;;;5130563;27;20082;-79
2022/11/05 04:02:32;;;;;;;8.88;4.97;;;4.30;99.90;;;;;;5121090;27;20036;-77
2022/11/05 04:04:57;;;;;;;6.30;4.63;;;4.20;99.90;;;;;;5135671;27;20140;-79
2022/11/05 04:17:05;;;;;;;9.45;4.50;;;4.20;99.90;;;;;;5135425;27;20055;-77
2022/11/05 04:18:21;;;;;;;8.95;4.32;;;4.20;99.90;;;;;;5127285;27;20043;-79
2022/11/05 04:26:15;;;;;;;9.88;4.35;;;4.20;99.90;;;;;;5129765;27;20047;-78
2022/11/05 04:31:45;;;;;;;9.35;4.10;;;4.20;99.90;;;;;;5104504;28;20085;-80
2022/11/05 04:34:11;;;;;;;5.93;4.53;;;4.20;99.90;;;;;;5094658;28;20570;-78
2022/11/05 04:36:36;;;;;;;15.48;4.07;;;4.20;99.90;;;;;;5119666;27;20047;-78
2022/11/05 04:39:02;;;;;;;7.72;3.88;;;4.20;99.90;;;;;;5134303;27;20042;-79
2022/11/05 04:41:27;;;;;;;7.07;3.90;;;4.20;99.90;;;;;;5131083;27;20046;-78
2022/11/05 04:43:53;;;;;;;7.28;4.25;;;4.20;99.90;;;;;;5130764;27;20118;-79
2022/11/05 04:46:18;;;;;;;12.05;4.15;;;4.10;99.90;;;;;;5119551;27;20047;-78
2022/11/05 04:48:44;;;;;;;7.32;4.40;;;4.10;99.90;;;;;;5131123;27;20401;-78
2022/11/05 04:51:09;;;;;;;9.23;4.70;;;4.10;99.90;;;;;;5134276;27;20039;-79
2022/11/05 04:53:35;;;;;;;14.35;4.30;;;4.10;99.90;;;;;;5133979;27;20046;-78
2022/11/05 04:56:21;;;;;;;7.22;4.65;;;4.10;99.90;;;;;;5132045;27;20043;-78
2022/11/05 04:58:47;;;;;;;7.22;3.92;;;4.10;99.90;;;;;;5116083;27;20043;-79
2022/11/05 05:01:15;;;;;;;8.23;4.30;;;4.10;99.90;;;;;;5120459;27;20555;-77
2022/11/05 05:03:41;;;;;;;6.65;4.03;;;4.00;99.90;;;;;;5131563;27;20399;-78
2022/11/05 05:06:07;;;;;;;10.55;4.05;;;4.10;99.90;;;;;;5134355;27;20050;-78
2022/11/05 05:08:33;;;;;;;11.80;4.10;;;4.20;99.90;;;;;;5128848;27;20027;-78
2022/11/05 05:11:04;;;;;;;6.22;4.22;;;4.00;99.90;;;;;;5130830;27;20073;-78
2022/11/05 05:13:30;;;;;;;7.85;4.15;;;4.10;99.90;;;;;;5131467;27;20068;-78
2022/11/05 05:15:55;;;;;;;8.40;4.20;;;4.00;99.90;;;;;;5129983;27;20122;-78
2022/11/05 05:18:21;;;;;;;7.90;4.20;;;4.00;99.90;;;;;;5117771;27;20077;-80
2022/11/05 05:23:30;;;;;;;8.88;4.20;;;4.00;99.90;;;;;;5116610;27;20453;-79
2022/11/05 05:25:59;;;;;;;11.40;4.32;;;4.00;99.90;;;;;;5128261;27;20114;-79
2022/11/05 05:28:26;;;;;;;7.45;4.38;;;4.00;99.90;;;;;;5117778;27;20040;-79
2022/11/05 05:30:51;;;;;;;8.77;4.55;;;4.00;99.90;;;;;;5132320;27;20075;-77
2022/11/05 05:33:17;;;;;;;5.97;4.60;;;4.00;99.90;;;;;;5121076;27;20112;-78
2022/11/05 05:35:42;;;;;;;10.88;4.28;;;3.90;99.90;;;;;;5127751;27;20495;-78
2022/11/05 05:38:08;;;;;;;6.13;4.22;;;3.90;99.90;;;;;;5125806;27;20039;-78
2022/11/05 05:40:33;;;;;;;11.88;4.30;;;3.90;99.90;;;;;;5128529;27;20091;-78
2022/11/05 05:42:59;;;;;;;7.72;4.57;;;3.90;99.90;;;;;;5123699;27;20043;-80
2022/11/05 05:45:24;;;;;;;9.18;4.15;;;3.90;99.90;;;;;;5134243;27;20467;-78
2022/11/05 05:47:50;;;;;;;8.80;4.35;;;3.90;99.90;;;;;;5118343;27;20039;-78
2022/11/05 05:50:16;;;;;;;9.18;4.00;;;3.90;99.90;;;;;;5131301;27;20558;-78
2022/11/05 05:52:41;;;;;;;8.00;4.47;;;3.90;99.90;;;;;;5130909;27;20123;-79
2022/11/05 05:55:11;;;;;;;9.18;4.63;;;3.80;99.90;;;;;;5115420;27;20032;-79
2022/11/05 05:57:37;;;;;;;6.20;4.07;;;3.80;99.90;;;;;;5126946;27;20123;-79
2022/11/05 06:00:04;;;;;;;8.60;4.43;;;3.80;99.90;;;;;;5132801;27;20114;-79
2022/11/05 06:02:30;;;;;;;6.45;4.15;;;3.80;99.90;;;;;;5128549;27;20054;-79
2022/11/05 06:04:56;;;;;;;7.72;4.47;;;3.80;99.90;;;;;;5114310;28;20040;-78
2022/11/05 06:07:21;;;;;;;7.20;4.47;;;3.80;99.90;;;;;;5115267;28;20047;-82
2022/11/05 06:09:47;;;;;;;7.55;5.10;;;3.80;99.90;;;;;;5119974;27;20041;-79
2022/11/05 06:12:13;;;;;;;6.68;4.63;;;3.80;99.90;;;;;;5122534;27;20039;-77
2022/11/05 06:14:38;;;;;;;5.63;4.68;;;3.80;99.90;;;;;;5129871;27;20451;-77
2022/11/05 06:17:06;;;;;;;8.88;4.07;;;3.80;99.90;;;;;;5130609;28;20074;-76
2022/11/05 06:19:31;;;;;;;9.63;4.93;;;3.70;99.90;;;;;;5134131;28;20047;-79
2022/11/05 06:21:57;;;;;;;7.57;4.70;;;3.80;99.90;;;;;;5132481;27;20052;-77
2022/11/05 06:24:22;;;;;;;9.00;4.40;;;3.70;99.90;;;;;;5137095;27;20039;-78
2022/11/05 06:26:48;;;;;;;8.05;4.32;;;3.70;99.90;;;;;;5136527;27;20043;-79
2022/11/05 06:29:14;;;;;;;6.30;4.60;;;3.70;99.90;;;;;;5134234;27;20051;-78
2022/11/05 06:31:39;;;;;;;8.65;4.63;;;3.70;99.90;;;;;;5132133;27;20094;-76
2022/11/05 06:34:05;;;;;;;7.50;4.90;;;3.70;99.90;;;;;;5138030;27;20039;-77
2022/11/05 06:36:32;;;;;;;7.63;5.07;;;3.60;99.90;;;;;;5137183;27;20486;-78
2022/11/05 06:38:58;;;;;;;9.75;4.90;;;3.70;99.90;;;;;;5130131;27;20391;-79
2022/11/05 06:41:27;;;;;;;13.07;4.95;;;3.70;99.90;;;;;;5128417;27;20039;-77
2022/11/05 06:43:53;;;;;;;9.43;4.22;;;;;;;;;;5128556;27;20050;-82
2022/11/05 06:46:18;;;;;;;8.15;4.90;;;3.90;99.90;;;;;;5123740;27;20376;-80
2022/11/05 06:48:44;;;;;;;15.45;5.20;;;3.20;99.90;;;;;;5132900;27;20039;-80
2022/11/05 06:51:09;;;;;;;14.40;6.15;;;3.80;99.90;;;;;;5126132;27;20066;-78
2022/11/05 06:53:35;;;;;;;8.25;5.03;;;3.80;99.90;;;;;;5130638;27;20031;-78
2022/11/05 06:56:03;;;;;;;11.32;5.75;;;3.80;99.90;;;;;;5128902;27;20103;-79
2022/11/05 06:58:29;;;;;;;11.50;5.70;;;4.80;99.90;;;;;;5134331;27;20065;-79
2022/11/05 07:01:09;;;;;;;9.88;5.97;;;3.80;99.90;;;;;;5129680;27;20047;-78
2022/11/05 07:03:36;;;;;;;11.75;6.00;;;4.00;99.90;;;;;;5135338;27;20043;-78
2022/11/05 07:06:03;;;;;;;9.18;5.50;;;3.90;99.90;;;;;;5136360;27;20123;-78
2022/11/05 07:08:36;;;;;;;;;;;4.00;99.90;;;;;;5135261;27;20047;-78
2022/11/05 07:11:01;;;;;;;8.27;5.80;;;4.00;99.90;;;;;;5130117;27;19924;-84
2022/11/05 07:13:27;;;;;;;14.20;5.90;;;3.90;99.90;;;;;;5116021;27;20058;-79
2022/11/05 07:15:53;;;;;;;10.77;6.15;;;3.90;99.90;;;;;;5134383;27;20043;-82
2022/11/05 07:18:18;;;;;;;12.23;6.10;;;3.70;99.90;;;;;;5132048;27;20561;-78
2022/11/05 07:20:44;;;;;;;12.20;6.82;;;4.00;99.90;;;;;;5135178;27;20047;-79
2022/11/05 07:23:12;;;;;;;11.48;6.65;;;4.10;99.90;;;;;;5128251;27;20043;-81
2022/11/05 07:25:39;;;;;;;11.50;7.45;;;4.50;99.90;;;;;;5133632;27;20096;-80
2022/11/05 07:28:05;;;;;;;11.70;7.35;;;4.10;99.90;;;;;;5135633;27;20126;-79
2022/11/05 07:30:32;;;;;;;13.27;7.83;;;4.10;99.90;;;;;;5135846;27;20090;-80
2022/11/05 07:32:57;;;;;;;13.52;7.40;;;4.20;99.90;;;;;;5130974;27;20046;-80
2022/11/05 07:35:23;;;;;;;13.88;7.07;;;4.30;99.90;;;;;;5131648;27;20467;-79
2022/11/05 07:37:50;;;;;;;14.63;7.00;;;4.20;99.90;;;;;;5107685;27;20478;-81
2022/11/05 07:40:18;;;;;;;16.70;7.78;;;4.30;99.90;;;;;;5137298;27;20047;-80
2022/11/05 07:42:45;;;;;;;14.10;7.70;;;4.40;99.90;;;;;;5128578;27;20047;-75
2022/11/05 07:45:12;;;;;;;11.32;8.68;;;4.30;99.90;;;;;;5121416;27;20071;-82
2022/11/05 07:47:44;;;;;;;14.02;8.52;;;4.40;99.90;;;;;;5129350;27;20055;-77
2022/11/05 07:50:10;;;;;;;17.05;8.32;;;4.40;99.90;;;;;;5133261;27;20042;-79
2022/11/05 07:52:35;;;;;;;11.90;8.02;;;5.60;99.90;;;;;;5124074;27;20632;-81
2022/11/05 07:55:01;;;;;;;15.32;7.93;;;4.40;99.90;;;;;;5135619;27;20118;-77
2022/11/05 07:57:26;;;;;;;17.27;9.23;;;4.60;99.90;;;;;;5136794;27;20035;-77
2022/11/05 07:59:52;;;;;;;15.80;9.57;;;4.70;99.90;;;;;;5134784;27;20402;-78
2022/11/05 08:02:18;;;;;;;13.93;8.95;;;4.80;99.90;;;;;;5137074;27;20046;-77
2022/11/05 08:04:43;;;;;;;20.40;8.80;;;5.00;99.90;;;;;;5136624;27;20525;-78
2022/11/05 08:07:09;;;;;;;15.70;8.52;;;5.00;99.90;;;;;;5136283;27;20043;-79
2022/11/05 08:09:34;;;;;;;15.50;8.68;;;5.00;99.90;;;;;;5133117;27;20039;-81
2022/11/05 08:12:00;;;;;;;16.40;8.73;;;5.10;99.90;;;;;;5135913;27;20039;-81
2022/11/05 08:14:25;;;;;;;21.85;8.70;;;5.10;99.90;;;;;;5134720;27;20096;-79
2022/11/05 08:16:51;;;;;;;18.35;9.35;;;5.20;99.90;;;;;;5134370;27;20061;-80
2022/11/05 08:19:16;;;;;;;18.27;9.52;;;6.40;99.90;;;;;;5134222;27;20111;-79
2022/11/05 08:21:42;;;;;;;16.23;8.90;;;5.20;99.90;;;;;;5126553;27;20046;-85
2022/11/05 08:24:08;;;;;;;19.55;9.18;;;5.90;99.90;;;;;;5115244;27;20047;-82
2022/11/05 08:26:33;;;;;;;17.27;8.63;;;5.60;99.90;;;;;;5119388;27;20043;-80
2022/11/05 08:28:59;;;;;;;20.13;9.10;;;4.90;99.90;;;;;;5115534;27;20142;-80
2022/11/05 08:31:25;;;;;;;13.65;8.63;;;5.80;99.90;;;;;;5130249;27;20047;-77
2022/11/05 08:33:52;;;;;;;17.35;9.18;;;5.80;99.90;;;;;;5134149;27;20050;-78
2022/11/05 08:36:18;;;;;;;17.00;9.45;;;6.30;99.90;;;;;;5131921;27;20039;-87
2022/11/05 08:38:43;;;;;;;15.57;8.85;;;5.30;99.90;;;;;;5118159;27;20122;-83
2022/11/05 08:41:09;;;;;;;17.05;8.98;;;7.40;99.90;;;;;;5130017;27;20376;-81
2022/11/05 08:43:34;;;;;;;13.02;8.75;;;6.40;99.90;;;;;;5128466;27;20039;-82
2022/11/05 08:46:00;;;;;;;16.65;9.15;;;6.10;99.90;;;;;;5132045;27;20047;-77
2022/11/05 08:48:26;;;;;;;15.13;8.60;;;6.60;99.90;;;;;;5135688;27;20528;-76
2022/11/05 08:50:52;;;;;;;13.05;8.75;;;6.40;99.90;;;;;;5135853;27;20039;-77
2022/11/05 08:53:18;;;;;;;13.80;8.40;;;6.50;99.90;;;;;;5135644;27;20043;-79
2022/11/05 08:55:46;;;;;;;12.75;8.43;;;6.50;99.90;;;;;;5131238;27;20084;-78
2022/11/05 08:58:15;;;;;;;14.38;8.23;;;6.60;99.90;;;;;;5121149;27;20027;-83
2022/11/05 09:00:42;;;;;;;12.95;7.97;;;6.70;99.90;;;;;;5116438;27;20525;-82
2022/11/05 09:03:08;;;;;;;;;;;6.60;99.90;;;;;;5129155;27;20062;-79
2022/11/05 09:05:37;;;;;;;13.70;8.30;;;6.40;99.90;;;;;;5127593;27;19923;-81
2022/11/05 09:08:24;;;;;;;14.43;8.32;;;7.20;99.90;;;;;;5123469;27;20052;-78
2022/11/05 09:10:49;;;;;;;10.57;7.68;;;7.20;99.90;;;;;;5116590;27;20044;-76
2022/11/05 09:13:15;;;;;;;13.18;7.57;;;7.30;99.90;;;;;;5124443;27;20041;-77
2022/11/05 09:15:41;;;;;;;13.65;7.97;;;7.40;99.90;;;;;;5132542;27;20039;-74
2022/11/05 09:18:11;;;;;;;12.63;7.72;;;7.50;99.90;;;;;;5119627;27;20543;-77
2022/11/05 09:20:38;;;;;;;10.18;7.30;;;7.80;99.90;;;;;;5123283;27;20079;-76
2022/11/05 09:23:05;;;;;;;14.40;7.30;;;7.50;99.90;;;;;;5135267;27;20183;-76
2022/11/05 09:25:32;;;;;;;18.00;7.55;;;7.80;99.90;;;;;;5134591;27;20060;-77
2022/11/05 09:28:13;;;;;;;12.43;7.00;;;8.20;99.90;;;;;;5132043;27;20114;-78
2022/11/05 09:30:45;;;;;;;11.13;6.72;;;8.00;99.90;;;;;;5121674;27;20414;-80
2022/11/05 09:33:11;;;;;;;9.82;6.68;;;7.80;99.90;;;;;;5129821;27;20043;-79
2022/11/05 09:35:38;;;;;;;8.55;6.72;;;8.20;99.90;;;;;;5121982;27;20047;-77
2022/11/05 09:38:05;;;;;;;11.85;6.68;;;8.00;99.90;;;;;;5130588;27;20027;-78
2022/11/05 09:40:36;;;;;;;13.37;6.20;;;9.10;99.90;;;;;;5128493;27;20051;-79
2022/11/05 09:43:02;;;;;;;9.75;6.20;;;8.30;99.90;;;;;;5128851;27;20074;-78
2022/11/05 09:45:30;;;;;;;10.25;6.15;;;9.10;99.90;;;;;;5122701;27;20541;-78
2022/11/05 09:48:02;;;;;;;12.55;6.32;;;8.60;99.90;;;;;;5119735;27;20539;-79
2022/11/05 09:50:41;;;;;;;7.72;5.63;;;9.00;99.90;;;;;;5129042;27;20042;-77
2022/11/05 09:53:09;;;;;;;7.70;5.72;;;8.70;99.90;;;;;;5124624;27;20047;-78
2022/11/05 09:55:48;;;;;;;11.07;6.10;;;9.00;99.90;;;;;;5132305;27;20057;-76
2022/11/05 09:58:30;;;;;;;8.57;5.70;;;9.00;99.90;;;;;;5123886;27;20047;-78
2022/11/05 10:00:56;;;;;;;8.75;5.63;;;9.10;99.90;;;;;;5131572;27;20055;-78
2022/11/05 10:03:25;;;;;;;12.77;5.63;;;9.20;99.90;;;;;;5122810;27;20043;-77
2022/11/05 10:05:53;;;;;;;8.73;5.95;;;9.10;99.90;;;;;;5115388;27;20411;-80
2022/11/05 10:08:23;;;;;;;8.30;5.70;;;8.40;99.90;;;;;;5124152;27;20035;-79
2022/11/05 10:10:53;;;;;;;9.63;5.90;;;9.20;99.90;;;;;;5120981;28;20057;-79
2022/11/05 10:13:39;;;;;;;10.45;6.10;;;9.30;99.90;;;;;;5131378;27;20059;-78
2022/11/05 10:16:19;;;;;;;8.95;5.60;;;9.40;99.90;;;;;;5123861;28;20042;-79
2022/11/05 10:18:51;;;;;;;8.95;5.80;;;8.60;99.90;;;;;;5132506;28;20047;-81
2022/11/05 10:21:19;;;;;;;11.63;6.28;;;9.50;99.90;;;;;;5128492;27;20483;-75
2022/11/05 10:23:46;;;;;;;9.98;5.47;;;9.80;99.90;;;;;;5125947;28;20035;-76
2022/11/05 10:26:18;;;;;;;;;;;10.60;99.90;;;;;;5126861;27;20084;-78
2022/11/05 10:28:43;;;;;;;6.75;5.32;;;9.80;99.90;;;;;;5120161;28;19919;-78
2022/11/05 10:31:13;;;;;;;11.77;5.00;;;9.80;99.90;;;;;;5124980;28;20051;-77
2022/11/05 10:33:46;;;;;;;7.10;5.50;;;9.70;99.90;;;;;;5133694;27;20096;-80
2022/11/05 10:36:30;;;;;;;8.15;4.88;;;9.90;99.90;;;;;;5134352;27;20386;-79
2022/11/05 10:39:01;;;;;;;10.32;5.35;;;10.00;99.90;;;;;;5134812;27;20045;-79
2022/11/05 10:41:43;;;;;;;9.80;4.90;;;10.60;99.90;;;;;;5132277;27;20130;-80
2022/11/05 10:44:22;;;;;;;15.25;5.10;;;10.80;99.90;;;;;;5117976;27;20077;-78
2022/11/05 10:47:05;;;;;;;9.38;5.10;;;10.30;99.90;;;;;;5116663;28;20044;-77
2022/11/05 10:49:58;;;;;;;8.40;4.93;;;10.40;99.90;;;;;;5124652;28;20044;-77
2022/11/05 10:52:55;;;;;;;6.35;4.63;;;10.70;99.90;;;;;;5131094;27;20043;-79
2022/11/05 10:55:32;;;;;;;7.93;4.03;;;10.70;99.90;;;;;;5122782;28;20448;-82
2022/11/05 10:58:15;;;;;;;7.13;4.22;;;10.70;99.90;;;;;;5129361;28;20479;-83
2022/11/05 11:01:03;;;;;;;6.38;4.82;;;10.70;99.90;;;;;;5119003;28;20058;-83
2022/11/05 11:03:43;;;;;;;5.38;4.30;;;10.60;99.90;;;;;;5118795;28;20105;-79
2022/11/05 11:06:30;;;;;;;10.43;4.43;;;10.60;99.90;;;;;;5133986;28;20047;-78
2022/11/05 11:09:00;;;;;;;7.95;5.32;;;10.70;99.90;;;;;;5125955;27;20039;-77
2022/11/05 11:11:40;;;;;;;6.13;4.00;;;10.60;99.90;;;;;;5116354;28;20035;-84
2022/11/05 11:14:08;;;;;;;11.48;4.57;;;10.60;99.90;;;;;;5118305;28;20044;-82
2022/11/05 11:16:38;;;;;;;11.80;4.20;;;10.60;99.90;;;;;;5134598;27;20035;-81
2022/11/05 11:19:20;;;;;;;9.07;4.05;;;10.60;99.90;;;;;;5119924;27;20035;-82
2022/11/05 11:21:45;;;;;;;12.05;4.18;;;10.70;99.90;;;;;;5129232;27;20078;-78
2022/11/05 11:24:21;;;;;;;8.65;4.35;;;10.70;99.90;;;;;;5123516;27;20078;-75
2022/11/05 11:26:47;;;;;;;9.98;4.28;;;10.80;99.90;;;;;;5126311;27;20100;-78
2022/11/05 11:29:25;;;;;;;5.93;3.78;;;10.80;99.90;;;;;;5129453;27;20043;-76
2022/11/05 11:31:55;;;;;;;6.05;4.03;;;10.90;99.90;;;;;;5125775;27;20104;-76
2022/11/05 11:34:37;;;;;;;9.82;4.45;;;10.90;99.90;;;;;;5117979;27;20503;-79
2022/11/05 11:37:15;;;;;;;5.20;4.03;;;10.80;99.90;;;;;;5129184;27;20112;-77
2022/11/05 11:39:45;;;;;;;7.78;3.85;;;11.00;99.90;;;;;;5127811;27;20475;-80
2022/11/05 11:42:32;;;;;;;8.07;3.83;;;11.10;99.90;;;;;;5129301;27;20042;-74
2022/11/05 11:45:04;;;;;;;5.75;3.50;;;11.20;99.90;;;;;;5116987;27;20459;-79
2022/11/05 11:47:31;;;;;;;5.75;4.22;;;10.90;99.90;;;;;;5126610;27;20146;-81
2022/11/05 11:49:59;;;;;;;7.68;3.80;;;11.40;99.90;;;;;;5128052;27;20078;-83
2022/11/05 11:52:31;;;;;;;4.88;3.40;;;11.20;99.90;;;;;;5125971;27;20039;-79
2022/11/05 11:55:20;;;;;;;10.32;4.45;;;11.80;99.90;;;;;;5130146;27;20075;-73
2022/11/05 11:57:51;;;;;;;5.47;3.60;;;11.70;99.90;;;;;;5123188;27;20399;-80
2022/11/05 12:00:19;;;;;;;10.45;4.25;;;11.90;99.90;;;;;;5137518;27;20064;-79
2022/11/05 12:02:58;;;;;;;7.47;4.32;;;11.70;99.90;;;;;;5136235;27;20039;-77
2022/11/05 12:06:01;;;;;;;5.40;4.13;;;11.60;99.90;;;;;;5135576;27;20035;-78
2022/11/05 12:08:53;;;;;;;8.50;4.15;;;11.60;99.90;;;;;;5136071;27;20039;-77
2022/11/05 12:11:37;;;;;;;6.05;3.83;;;11.50;99.90;;;;;;5132305;27;20111;-77
2022/11/05 12:14:37;;;;;;;7.53;4.40;;;11.50;99.90;;;;;;5136398;27;20043;-76
2022/11/05 12:17:40;;;;;;;6.03;4.57;;;11.40;99.90;;;;;;5136215;27;20440;-81
2022/11/05 12:20:22;;;;;;;9.02;4.10;;;11.40;99.90;;;;;;5136265;27;20121;-77
2022/11/05 12:23:08;;;;;;;12.98;4.72;;;11.40;99.90;;;;;;5137150;27;20148;-79
2022/11/05 12:25:56;;;;;;;7.35;4.05;;;11.30;99.90;;;;;;5136752;27;20035;-77
2022/11/05 12:28:27;;;;;;;15.13;4.60;;;11.20;99.90;;;;;;5136276;27;20039;-76
2022/11/05 12:31:06;;;;;;;8.68;4.32;;;11.80;99.90;;;;;;5136420;27;20502;-77
2022/11/05 12:33:41;;;;;;;12.57;4.85;;;11.20;99.90;;;;;;5136846;27;20061;-77
2022/11/05 12:36:21;;;;;;;10.52;4.97;;;11.10;99.90;;;;;;5136508;27;20054;-77
2022/11/05 12:39:08;;;;;;;7.50;4.90;;;11.00;99.90;;;;;;5136278;27;20126;-76
2022/11/05 12:41:55;;;;;;;9.98;4.90;;;11.00;99.90;;;;;;5136094;27;20483;-76
2022/11/05 12:44:40;;;;;;;7.65;4.70;;;10.90;99.90;;;;;;5136337;27;20455;-76
2022/11/05 12:47:15;;;;;;;13.52;4.68;;;10.90;99.90;;;;;;5136193;27;20487;-79
2022/11/05 12:49:58;;;;;;;7.20;5.32;;;10.90;99.90;;;;;;5136167;27;20459;-78
2022/11/05 12:52:52;;;;;;;8.52;4.30;;;11.00;99.90;;;;;;5136138;27;20113;-78
2022/11/05 12:55:22;;;;;;;7.68;4.50;;;11.10;99.90;;;;;;5136060;27;20095;-76
2022/11/05 12:57:56;;;;;;;6.10;4.00;;;10.80;99.90;;;;;;5135857;27;20089;-79
2022/11/05 13:00:24;;;;;;;9.38;4.93;;;11.00;99.90;;;;;;5135624;27;20500;-76
2022/11/05 13:02:55;;;;;;;9.35;4.20;;;11.00;99.90;;;;;;5136130;27;20525;-77
2022/11/05 13:05:35;;;;;;;12.23;4.45;;;11.10;99.90;;;;;;5135771;27;20126;-78
2022/11/05 13:08:27;;;;;;;7.97;4.43;;;10.70;99.90;;;;;;5135785;27;20043;-78
2022/11/05 13:11:17;;;;;;;9.50;4.60;;;11.10;99.90;;;;;;5135754;27;20051;-78
2022/11/05 13:14:17;;;;;;;9.23;4.97;;;11.10;99.90;;;;;;5135799;27;20050;-78
2022/11/05 13:16:48;;;;;;;8.90;4.30;;;11.20;99.90;;;;;;5136169;27;20122;-76
2022/11/05 13:19:31;;;;;;;7.63;4.78;;;11.20;99.90;;;;;;5136050;27;20039;-77
2022/11/05 13:22:21;;;;;;;8.55;4.80;;;11.10;99.90;;;;;;5135635;27;20039;-78
2022/11/05 13:24:50;;;;;;;11.15;5.15;;;11.20;99.90;;;;;;5134253;27;20047;-78
2022/11/05 13:27:46;;;;;;;8.82;5.00;;;11.20;99.90;;;;;;5135807;27;20100;-76
2022/11/05 13:30:17;;;;;;;8.88;5.38;;;11.50;99.90;;;;;;5134866;27;20448;-79
2022/11/05 13:32:48;;;;;;;13.25;5.20;;;11.20;99.90;;;;;;5135599;27;20043;-77
2022/11/05 13:35:20;;;;;;;9.85;5.43;;;11.20;99.90;;;;;;5134044;27;20444;-79
2022/11/05 13:40:58;;;;;;;11.07;5.95;;;11.10;99.90;;;;;;5105717;27;20054;-77
2022/11/05 13:43:53;;;;;;;11.65;5.47;;;11.10;99.90;;;;;;5135235;27;20372;-77
2022/11/05 13:46:35;;;;;;;11.27;5.45;;;11.10;99.90;;;;;;5134901;27;20538;-77
2022/11/05 13:49:17;;;;;;;10.05;5.72;;;11.10;99.90;;;;;;5135370;27;20496;-78
2022/11/05 13:51:58;;;;;;;11.35;5.57;;;11.10;99.90;;;;;;5135139;27;20039;-77
2022/11/05 13:54:39;;;;;;;7.35;5.00;;;11.10;99.90;;;;;;5134716;27;20487;-77
2022/11/05 13:57:04;;;;;;;7.72;4.82;;;11.10;99.90;;;;;;5135235;27;20043;-78
2022/11/05 13:59:48;;;;;;;7.80;5.32;;;11.10;99.90;;;;;;5134915;27;20489;-78